sensor_id;sensor_type;location;lat;lon;timestamp;P1;durP1;ratioP1;P2;durP2;ratioP2
18174;SDS011;9212;50.894;16.714;2023-02-01T00:01:59;1.83;;;1.70;;
18174;SDS011;9212;50.894;16.714;2023-02-01T00:04:26;1.73;;;1.63;;
18174;SDS011;9212;50.894;16.714;2023-02-01T00:06:53;4.10;;;1.97;;
18174;SDS011;9212;50.894;16.714;2023-02-01T00:09:20;1.93;;;1.83;;
18174;SDS011;9212;50.894;16.714;2023-02-01T00:11:49;1.10;;;1.10;;
18174;SDS011;9212;50.894;16.714;2023-02-01T00:14:16;1.43;;;1.40;;
18174;SDS011;9212;50.894;16.714;2023-02-01T00:16:43;3.23;;;1.40;;
18174;SDS011;9212;50.894;16.714;2023-02-01T00:19:11;1.50;;;1.40;;
18174;SDS011;9212;50.894;16.714;2023-02-01T00:21:40;2.03;;;1.83;;
18174;SDS011;9212;50.894;16.714;2023-02-01T00:24:08;1.97;;;1.47;;
18174;SDS011;9212;50.894;16.714;2023-02-01T00:26:38;1.77;;;1.53;;
18174;SDS011;9212;50.894;16.714;2023-02-01T00:29:09;1.37;;;1.07;;
18174;SDS011;9212;50.894;16.714;2023-02-01T00:31:39;1.40;;;1.33;;
18174;SDS011;9212;50.894;16.714;2023-02-01T00:34:06;1.20;;;1.20;;
18174;SDS011;9212;50.894;16.714;2023-02-01T00:36:33;2.03;;;1.33;;
18174;SDS011;9212;50.894;16.714;2023-02-01T00:39:01;1.40;;;1.40;;
18174;SDS011;9212;50.894;16.714;2023-02-01T00:41:28;2.00;;;1.90;;
18174;SDS011;9212;50.894;16.714;2023-02-01T00:43:55;1.73;;;1.63;;
18174;SDS011;9212;50.894;16.714;2023-02-01T00:46:24;1.70;;;1.50;;
18174;SDS011;9212;50.894;16.714;2023-02-01T00:48:51;1.20;;;1.20;;
18174;SDS011;9212;50.894;16.714;2023-02-01T00:51:20;1.73;;;1.67;;
18174;SDS011;9212;50.894;16.714;2023-02-01T00:53:48;1.93;;;1.70;;
18174;SDS011;9212;50.894;16.714;2023-02-01T00:56:16;2.40;;;1.73;;
18174;SDS011;9212;50.894;16.714;2023-02-01T00:58:43;3.10;;;1.80;;
18174;SDS011;9212;50.894;16.714;2023-02-01T01:01:11;4.73;;;2.00;;
18174;SDS011;9212;50.894;16.714;2023-02-01T01:03:42;1.50;;;1.40;;
18174;SDS011;9212;50.894;16.714;2023-02-01T01:06:11;4.33;;;2.83;;
18174;SDS011;9212;50.894;16.714;2023-02-01T01:08:40;4.37;;;2.23;;
18174;SDS011;9212;50.894;16.714;2023-02-01T01:11:08;2.70;;;2.30;;
18174;SDS011;9212;50.894;16.714;2023-02-01T01:13:36;4.10;;;2.43;;
18174;SDS011;9212;50.894;16.714;2023-02-01T01:16:04;6.00;;;2.87;;
18174;SDS011;9212;50.894;16.714;2023-02-01T01:18:32;10.03;;;3.63;;
18174;SDS011;9212;50.894;16.714;2023-02-01T01:21:03;6.73;;;2.70;;
18174;SDS011;9212;50.894;16.714;2023-02-01T01:23:31;3.97;;;2.20;;
18174;SDS011;9212;50.894;16.714;2023-02-01T01:25:59;6.57;;;2.97;;
18174;SDS011;9212;50.894;16.714;2023-02-01T01:28:26;4.67;;;2.77;;
18174;SDS011;9212;50.894;16.714;2023-02-01T01:30:53;7.23;;;3.27;;
18174;SDS011;9212;50.894;16.714;2023-02-01T01:33:20;5.10;;;3.37;;
18174;SDS011;9212;50.894;16.714;2023-02-01T01:35:48;4.00;;;2.47;;
18174;SDS011;9212;50.894;16.714;2023-02-01T01:38:16;7.20;;;3.20;;
18174;SDS011;9212;50.894;16.714;2023-02-01T01:40:44;5.23;;;2.17;;
18174;SDS011;9212;50.894;16.714;2023-02-01T01:43:12;2.93;;;2.17;;
18174;SDS011;9212;50.894;16.714;2023-02-01T01:45:40;14.63;;;2.27;;
18174;SDS011;9212;50.894;16.714;2023-02-01T01:48:11;4.60;;;2.33;;
18174;SDS011;9212;50.894;16.714;2023-02-01T01:50:42;5.67;;;2.87;;
18174;SDS011;9212;50.894;16.714;2023-02-01T01:53:15;4.10;;;2.23;;
18174;SDS011;9212;50.894;16.714;2023-02-01T01:55:53;3.90;;;2.50;;
18174;SDS011;9212;50.894;16.714;2023-02-01T01:58:23;3.77;;;2.27;;
18174;SDS011;9212;50.894;16.714;2023-02-01T02:00:52;2.77;;;2.10;;
18174;SDS011;9212;50.894;16.714;2023-02-01T02:03:20;4.27;;;2.27;;
18174;SDS011;9212;50.894;16.714;2023-02-01T02:05:50;5.77;;;2.17;;
18174;SDS011;9212;50.894;16.714;2023-02-01T02:08:21;8.70;;;2.40;;
18174;SDS011;9212;50.894;16.714;2023-02-01T02:10:51;7.70;;;2.33;;
18174;SDS011;9212;50.894;16.714;2023-02-01T02:13:27;7.43;;;2.40;;
18174;SDS011;9212;50.894;16.714;2023-02-01T02:16:05;7.97;;;2.53;;
18174;SDS011;9212;50.894;16.714;2023-02-01T02:18:50;9.60;;;2.10;;
18174;SDS011;9212;50.894;16.714;2023-02-01T02:21:32;8.33;;;3.47;;
18174;SDS011;9212;50.894;16.714;2023-02-01T02:24:16;9.40;;;2.90;;
18174;SDS011;9212;50.894;16.714;2023-02-01T02:27:11;8.27;;;2.57;;
18174;SDS011;9212;50.894;16.714;2023-02-01T02:29:54;10.47;;;3.00;;
18174;SDS011;9212;50.894;16.714;2023-02-01T02:35:38;5.50;;;2.30;;
18174;SDS011;9212;50.894;16.714;2023-02-01T02:38:17;12.37;;;2.30;;
18174;SDS011;9212;50.894;16.714;2023-02-01T02:40:52;6.10;;;2.03;;
18174;SDS011;9212;50.894;16.714;2023-02-01T02:43:28;5.07;;;2.10;;
18174;SDS011;9212;50.894;16.714;2023-02-01T02:46:21;6.50;;;2.43;;
18174;SDS011;9212;50.894;16.714;2023-02-01T02:49:09;8.23;;;2.40;;
18174;SDS011;9212;50.894;16.714;2023-02-01T02:51:43;5.27;;;2.53;;
18174;SDS011;9212;50.894;16.714;2023-02-01T02:54:32;4.73;;;2.00;;
18174;SDS011;9212;50.894;16.714;2023-02-01T02:57:18;6.93;;;1.90;;
18174;SDS011;9212;50.894;16.714;2023-02-01T03:00:04;3.77;;;2.30;;
18174;SDS011;9212;50.894;16.714;2023-02-01T03:02:51;8.47;;;2.20;;
18174;SDS011;9212;50.894;16.714;2023-02-01T03:05:37;2.47;;;1.87;;
18174;SDS011;9212;50.894;16.714;2023-02-01T03:08:11;4.83;;;2.20;;
18174;SDS011;9212;50.894;16.714;2023-02-01T03:10:44;6.73;;;2.30;;
18174;SDS011;9212;50.894;16.714;2023-02-01T03:13:18;7.93;;;2.33;;
18174;SDS011;9212;50.894;16.714;2023-02-01T03:15:54;6.20;;;2.23;;
18174;SDS011;9212;50.894;16.714;2023-02-01T03:18:26;10.90;;;2.67;;
18174;SDS011;9212;50.894;16.714;2023-02-01T03:20:59;8.90;;;2.83;;
18174;SDS011;9212;50.894;16.714;2023-02-01T03:23:30;7.43;;;2.33;;
18174;SDS011;9212;50.894;16.714;2023-02-01T03:26:00;17.00;;;3.10;;
18174;SDS011;9212;50.894;16.714;2023-02-01T03:28:29;5.40;;;1.80;;
18174;SDS011;9212;50.894;16.714;2023-02-01T03:30:58;10.63;;;2.87;;
18174;SDS011;9212;50.894;16.714;2023-02-01T03:33:26;9.07;;;2.40;;
18174;SDS011;9212;50.894;16.714;2023-02-01T03:35:59;7.33;;;1.90;;
18174;SDS011;9212;50.894;16.714;2023-02-01T03:38:34;5.00;;;1.77;;
18174;SDS011;9212;50.894;16.714;2023-02-01T03:41:09;7.47;;;2.60;;
18174;SDS011;9212;50.894;16.714;2023-02-01T03:43:42;7.27;;;2.30;;
18174;SDS011;9212;50.894;16.714;2023-02-01T03:46:17;6.03;;;2.03;;
18174;SDS011;9212;50.894;16.714;2023-02-01T03:48:49;6.83;;;2.87;;
18174;SDS011;9212;50.894;16.714;2023-02-01T03:51:17;5.60;;;2.93;;
18174;SDS011;9212;50.894;16.714;2023-02-01T03:53:48;2.93;;;1.97;;
18174;SDS011;9212;50.894;16.714;2023-02-01T03:56:16;3.97;;;2.37;;
18174;SDS011;9212;50.894;16.714;2023-02-01T03:58:44;6.00;;;2.67;;
18174;SDS011;9212;50.894;16.714;2023-02-01T04:01:23;6.23;;;2.30;;
18174;SDS011;9212;50.894;16.714;2023-02-01T04:03:52;6.97;;;2.40;;
18174;SDS011;9212;50.894;16.714;2023-02-01T04:06:19;6.63;;;1.90;;
18174;SDS011;9212;50.894;16.714;2023-02-01T04:08:48;11.77;;;2.53;;
18174;SDS011;9212;50.894;16.714;2023-02-01T04:11:15;4.23;;;2.00;;
18174;SDS011;9212;50.894;16.714;2023-02-01T04:13:43;6.07;;;2.00;;
18174;SDS011;9212;50.894;16.714;2023-02-01T04:16:10;10.70;;;2.10;;
18174;SDS011;9212;50.894;16.714;2023-02-01T04:18:37;5.57;;;2.13;;
18174;SDS011;9212;50.894;16.714;2023-02-01T04:21:04;4.20;;;1.80;;
18174;SDS011;9212;50.894;16.714;2023-02-01T04:23:32;4.90;;;2.00;;
18174;SDS011;9212;50.894;16.714;2023-02-01T04:26:01;7.33;;;2.43;;
18174;SDS011;9212;50.894;16.714;2023-02-01T04:28:29;6.70;;;1.70;;
18174;SDS011;9212;50.894;16.714;2023-02-01T04:30:56;8.17;;;2.70;;
18174;SDS011;9212;50.894;16.714;2023-02-01T04:33:23;11.77;;;2.73;;
18174;SDS011;9212;50.894;16.714;2023-02-01T04:35:51;6.03;;;1.63;;
18174;SDS011;9212;50.894;16.714;2023-02-01T04:38:18;6.37;;;1.67;;
18174;SDS011;9212;50.894;16.714;2023-02-01T04:40:46;6.20;;;2.23;;
18174;SDS011;9212;50.894;16.714;2023-02-01T04:43:15;6.63;;;2.40;;
18174;SDS011;9212;50.894;16.714;2023-02-01T04:45:46;2.93;;;1.93;;
18174;SDS011;9212;50.894;16.714;2023-02-01T04:48:14;8.33;;;2.33;;
18174;SDS011;9212;50.894;16.714;2023-02-01T04:50:41;7.13;;;2.10;;
18174;SDS011;9212;50.894;16.714;2023-02-01T04:53:10;4.10;;;2.07;;
18174;SDS011;9212;50.894;16.714;2023-02-01T04:55:37;5.07;;;1.83;;
18174;SDS011;9212;50.894;16.714;2023-02-01T04:58:04;13.27;;;2.60;;
18174;SDS011;9212;50.894;16.714;2023-02-01T05:00:33;5.30;;;1.80;;
18174;SDS011;9212;50.894;16.714;2023-02-01T05:03:00;8.07;;;2.13;;
18174;SDS011;9212;50.894;16.714;2023-02-01T05:05:27;4.00;;;2.47;;
18174;SDS011;9212;50.894;16.714;2023-02-01T05:07:55;8.93;;;3.07;;
18174;SDS011;9212;50.894;16.714;2023-02-01T05:10:22;9.13;;;2.30;;
18174;SDS011;9212;50.894;16.714;2023-02-01T05:12:49;7.37;;;2.43;;
18174;SDS011;9212;50.894;16.714;2023-02-01T05:15:35;14.07;;;2.33;;
18174;SDS011;9212;50.894;16.714;2023-02-01T05:18:02;9.17;;;2.13;;
18174;SDS011;9212;50.894;16.714;2023-02-01T05:20:29;4.90;;;2.30;;
18174;SDS011;9212;50.894;16.714;2023-02-01T05:22:57;5.30;;;1.60;;
18174;SDS011;9212;50.894;16.714;2023-02-01T05:25:24;6.80;;;2.10;;
18174;SDS011;9212;50.894;16.714;2023-02-01T05:27:52;4.27;;;2.07;;
18174;SDS011;9212;50.894;16.714;2023-02-01T05:30:19;5.87;;;2.60;;
18174;SDS011;9212;50.894;16.714;2023-02-01T05:32:50;5.33;;;2.23;;
18174;SDS011;9212;50.894;16.714;2023-02-01T05:35:17;2.80;;;2.07;;
18174;SDS011;9212;50.894;16.714;2023-02-01T05:37:44;8.03;;;2.60;;
18174;SDS011;9212;50.894;16.714;2023-02-01T05:40:11;11.80;;;3.10;;
18174;SDS011;9212;50.894;16.714;2023-02-01T05:42:38;8.37;;;2.93;;
18174;SDS011;9212;50.894;16.714;2023-02-01T05:45:06;4.93;;;2.23;;
18174;SDS011;9212;50.894;16.714;2023-02-01T05:47:34;12.30;;;3.20;;
18174;SDS011;9212;50.894;16.714;2023-02-01T05:50:03;2.97;;;1.83;;
18174;SDS011;9212;50.894;16.714;2023-02-01T05:52:31;3.83;;;2.27;;
18174;SDS011;9212;50.894;16.714;2023-02-01T05:54:58;3.87;;;2.00;;
18174;SDS011;9212;50.894;16.714;2023-02-01T05:57:25;4.60;;;1.67;;
18174;SDS011;9212;50.894;16.714;2023-02-01T05:59:53;7.27;;;2.30;;
18174;SDS011;9212;50.894;16.714;2023-02-01T06:02:20;5.63;;;2.07;;
18174;SDS011;9212;50.894;16.714;2023-02-01T06:04:49;5.47;;;2.20;;
18174;SDS011;9212;50.894;16.714;2023-02-01T06:07:18;7.07;;;1.80;;
18174;SDS011;9212;50.894;16.714;2023-02-01T06:09:44;3.63;;;2.00;;
18174;SDS011;9212;50.894;16.714;2023-02-01T06:12:12;9.33;;;2.57;;
18174;SDS011;9212;50.894;16.714;2023-02-01T06:14:39;5.10;;;2.27;;
18174;SDS011;9212;50.894;16.714;2023-02-01T06:17:08;5.30;;;1.73;;
18174;SDS011;9212;50.894;16.714;2023-02-01T06:19:35;8.40;;;2.10;;
18174;SDS011;9212;50.894;16.714;2023-02-01T06:22:02;5.10;;;1.80;;
18174;SDS011;9212;50.894;16.714;2023-02-01T06:24:32;5.53;;;2.13;;
18174;SDS011;9212;50.894;16.714;2023-02-01T06:26:59;9.43;;;2.50;;
18174;SDS011;9212;50.894;16.714;2023-02-01T06:29:27;5.07;;;2.40;;
18174;SDS011;9212;50.894;16.714;2023-02-01T06:31:54;8.17;;;2.63;;
18174;SDS011;9212;50.894;16.714;2023-02-01T06:34:21;7.30;;;2.07;;
18174;SDS011;9212;50.894;16.714;2023-02-01T06:36:49;6.90;;;2.57;;
18174;SDS011;9212;50.894;16.714;2023-02-01T06:39:16;3.33;;;1.87;;
18174;SDS011;9212;50.894;16.714;2023-02-01T06:41:46;4.97;;;1.90;;
18174;SDS011;9212;50.894;16.714;2023-02-01T06:44:15;3.77;;;2.30;;
18174;SDS011;9212;50.894;16.714;2023-02-01T06:46:42;7.00;;;2.67;;
18174;SDS011;9212;50.894;16.714;2023-02-01T06:49:10;15.37;;;3.50;;
18174;SDS011;9212;50.894;16.714;2023-02-01T06:51:37;5.70;;;2.77;;
18174;SDS011;9212;50.894;16.714;2023-02-01T06:54:04;13.30;;;4.33;;
18174;SDS011;9212;50.894;16.714;2023-02-01T06:56:31;6.67;;;3.33;;
18174;SDS011;9212;50.894;16.714;2023-02-01T06:59:01;11.23;;;4.40;;
18174;SDS011;9212;50.894;16.714;2023-02-01T07:01:30;11.00;;;4.27;;
18174;SDS011;9212;50.894;16.714;2023-02-01T07:03:57;13.57;;;4.70;;
18174;SDS011;9212;50.894;16.714;2023-02-01T07:06:24;7.63;;;2.80;;
18174;SDS011;9212;50.894;16.714;2023-02-01T07:08:51;7.97;;;2.97;;
18174;SDS011;9212;50.894;16.714;2023-02-01T07:11:20;5.40;;;2.13;;
18174;SDS011;9212;50.894;16.714;2023-02-01T07:13:48;7.20;;;2.70;;
18174;SDS011;9212;50.894;16.714;2023-02-01T07:16:17;8.00;;;2.50;;
18174;SDS011;9212;50.894;16.714;2023-02-01T07:18:45;10.13;;;2.63;;
18174;SDS011;9212;50.894;16.714;2023-02-01T07:21:13;9.27;;;2.67;;
18174;SDS011;9212;50.894;16.714;2023-02-01T07:23:40;8.07;;;3.17;;
18174;SDS011;9212;50.894;16.714;2023-02-01T07:26:09;5.83;;;2.97;;
18174;SDS011;9212;50.894;16.714;2023-02-01T07:28:37;5.27;;;2.47;;
18174;SDS011;9212;50.894;16.714;2023-02-01T07:31:05;6.73;;;2.73;;
18174;SDS011;9212;50.894;16.714;2023-02-01T07:33:35;5.73;;;3.23;;
18174;SDS011;9212;50.894;16.714;2023-02-01T07:36:02;6.27;;;2.87;;
18174;SDS011;9212;50.894;16.714;2023-02-01T07:38:31;10.60;;;3.80;;
18174;SDS011;9212;50.894;16.714;2023-02-01T07:40:58;6.73;;;2.70;;
18174;SDS011;9212;50.894;16.714;2023-02-01T07:43:26;7.50;;;2.90;;
18174;SDS011;9212;50.894;16.714;2023-02-01T07:45:53;6.10;;;3.10;;
18174;SDS011;9212;50.894;16.714;2023-02-01T07:48:21;12.13;;;3.27;;
18174;SDS011;9212;50.894;16.714;2023-02-01T07:50:52;6.23;;;2.77;;
18174;SDS011;9212;50.894;16.714;2023-02-01T07:53:23;10.37;;;3.03;;
18174;SDS011;9212;50.894;16.714;2023-02-01T07:55:51;6.13;;;2.80;;
18174;SDS011;9212;50.894;16.714;2023-02-01T07:58:18;18.73;;;3.50;;
18174;SDS011;9212;50.894;16.714;2023-02-01T08:00:45;5.63;;;2.40;;
18174;SDS011;9212;50.894;16.714;2023-02-01T08:03:30;8.63;;;3.30;;
18174;SDS011;9212;50.894;16.714;2023-02-01T08:05:58;11.87;;;3.80;;
18174;SDS011;9212;50.894;16.714;2023-02-01T08:08:25;6.70;;;3.10;;
18174;SDS011;9212;50.894;16.714;2023-02-01T08:10:56;4.97;;;2.87;;
18174;SDS011;9212;50.894;16.714;2023-02-01T08:13:23;9.23;;;3.23;;
18174;SDS011;9212;50.894;16.714;2023-02-01T08:15:51;6.43;;;2.77;;
18174;SDS011;9212;50.894;16.714;2023-02-01T08:18:18;13.73;;;2.97;;
18174;SDS011;9212;50.894;16.714;2023-02-01T08:20:46;9.37;;;3.30;;
18174;SDS011;9212;50.894;16.714;2023-02-01T08:23:14;5.27;;;2.87;;
18174;SDS011;9212;50.894;16.714;2023-02-01T08:25:42;6.10;;;2.90;;
18174;SDS011;9212;50.894;16.714;2023-02-01T08:28:09;11.63;;;3.10;;
18174;SDS011;9212;50.894;16.714;2023-02-01T08:30:37;7.40;;;3.10;;
18174;SDS011;9212;50.894;16.714;2023-02-01T08:33:04;8.50;;;3.20;;
18174;SDS011;9212;50.894;16.714;2023-02-01T08:35:32;7.23;;;2.73;;
18174;SDS011;9212;50.894;16.714;2023-02-01T08:37:59;6.67;;;2.50;;
18174;SDS011;9212;50.894;16.714;2023-02-01T08:40:28;7.43;;;2.57;;
18174;SDS011;9212;50.894;16.714;2023-02-01T08:42:55;3.43;;;1.90;;
18174;SDS011;9212;50.894;16.714;2023-02-01T08:45:23;8.67;;;2.70;;
18174;SDS011;9212;50.894;16.714;2023-02-01T08:47:51;3.53;;;2.40;;
18174;SDS011;9212;50.894;16.714;2023-02-01T08:50:19;9.63;;;3.37;;
18174;SDS011;9212;50.894;16.714;2023-02-01T08:52:47;7.07;;;3.77;;
18174;SDS011;9212;50.894;16.714;2023-02-01T08:55:14;3.27;;;2.70;;
18174;SDS011;9212;50.894;16.714;2023-02-01T08:57:43;3.07;;;2.77;;
18174;SDS011;9212;50.894;16.714;2023-02-01T09:00:11;7.30;;;2.80;;
18174;SDS011;9212;50.894;16.714;2023-02-01T09:02:40;7.47;;;3.00;;
18174;SDS011;9212;50.894;16.714;2023-02-01T09:05:08;5.30;;;2.00;;
18174;SDS011;9212;50.894;16.714;2023-02-01T09:07:35;6.13;;;2.70;;
18174;SDS011;9212;50.894;16.714;2023-02-01T09:10:03;1.77;;;1.63;;
18174;SDS011;9212;50.894;16.714;2023-02-01T09:12:31;6.30;;;2.20;;
18174;SDS011;9212;50.894;16.714;2023-02-01T09:15:00;2.57;;;2.27;;
18174;SDS011;9212;50.894;16.714;2023-02-01T09:17:28;6.37;;;2.60;;
18174;SDS011;9212;50.894;16.714;2023-02-01T09:19:56;6.87;;;2.47;;
18174;SDS011;9212;50.894;16.714;2023-02-01T09:22:23;5.47;;;2.77;;
18174;SDS011;9212;50.894;16.714;2023-02-01T09:24:51;10.57;;;2.97;;
18174;SDS011;9212;50.894;16.714;2023-02-01T09:27:18;6.43;;;2.00;;
18174;SDS011;9212;50.894;16.714;2023-02-01T09:29:45;4.93;;;1.97;;
18174;SDS011;9212;50.894;16.714;2023-02-01T09:32:18;4.97;;;2.30;;
18174;SDS011;9212;50.894;16.714;2023-02-01T09:34:46;3.80;;;2.33;;
18174;SDS011;9212;50.894;16.714;2023-02-01T09:37:14;2.43;;;1.90;;
18174;SDS011;9212;50.894;16.714;2023-02-01T09:39:41;3.40;;;2.30;;
18174;SDS011;9212;50.894;16.714;2023-02-01T09:42:14;4.87;;;2.33;;
18174;SDS011;9212;50.894;16.714;2023-02-01T09:47:46;5.67;;;3.03;;
18174;SDS011;9212;50.894;16.714;2023-02-01T09:50:18;3.97;;;2.50;;
18174;SDS011;9212;50.894;16.714;2023-02-01T09:52:51;5.77;;;2.63;;
18174;SDS011;9212;50.894;16.714;2023-02-01T09:55:23;9.47;;;3.27;;
18174;SDS011;9212;50.894;16.714;2023-02-01T09:57:58;8.90;;;3.57;;
18174;SDS011;9212;50.894;16.714;2023-02-01T10:00:28;3.70;;;2.50;;
18174;SDS011;9212;50.894;16.714;2023-02-01T10:03:01;5.67;;;2.47;;
18174;SDS011;9212;50.894;16.714;2023-02-01T10:05:38;3.97;;;2.70;;
18174;SDS011;9212;50.894;16.714;2023-02-01T10:08:18;8.63;;;2.73;;
18174;SDS011;9212;50.894;16.714;2023-02-01T10:10:52;8.93;;;3.57;;
18174;SDS011;9212;50.894;16.714;2023-02-01T10:13:33;11.03;;;3.57;;
18174;SDS011;9212;50.894;16.714;2023-02-01T10:16:16;15.23;;;6.67;;
18174;SDS011;9212;50.894;16.714;2023-02-01T10:19:07;8.43;;;4.27;;
18174;SDS011;9212;50.894;16.714;2023-02-01T10:21:54;5.90;;;2.97;;
18174;SDS011;9212;50.894;16.714;2023-02-01T10:24:28;6.63;;;2.53;;
18174;SDS011;9212;50.894;16.714;2023-02-01T10:27:12;4.50;;;2.83;;
18174;SDS011;9212;50.894;16.714;2023-02-01T10:29:41;5.10;;;2.80;;
18174;SDS011;9212;50.894;16.714;2023-02-01T10:32:14;6.33;;;2.90;;
18174;SDS011;9212;50.894;16.714;2023-02-01T10:34:46;4.97;;;3.10;;
18174;SDS011;9212;50.894;16.714;2023-02-01T10:37:22;5.90;;;2.37;;
18174;SDS011;9212;50.894;16.714;2023-02-01T10:39:52;10.13;;;3.10;;
18174;SDS011;9212;50.894;16.714;2023-02-01T10:42:24;9.63;;;4.20;;
18174;SDS011;9212;50.894;16.714;2023-02-01T10:44:53;9.43;;;3.33;;
18174;SDS011;9212;50.894;16.714;2023-02-01T10:47:22;10.70;;;4.20;;
18174;SDS011;9212;50.894;16.714;2023-02-01T10:49:52;8.10;;;3.80;;
18174;SDS011;9212;50.894;16.714;2023-02-01T10:52:28;11.77;;;3.17;;
18174;SDS011;9212;50.894;16.714;2023-02-01T10:55:00;5.43;;;2.37;;
18174;SDS011;9212;50.894;16.714;2023-02-01T10:57:59;6.40;;;2.60;;
18174;SDS011;9212;50.894;16.714;2023-02-01T11:00:28;4.10;;;2.30;;
18174;SDS011;9212;50.894;16.714;2023-02-01T11:03:00;5.40;;;2.77;;
18174;SDS011;9212;50.894;16.714;2023-02-01T11:05:28;3.80;;;2.93;;
18174;SDS011;9212;50.894;16.714;2023-02-01T11:08:12;2.43;;;2.20;;
18174;SDS011;9212;50.894;16.714;2023-02-01T11:10:42;3.57;;;2.60;;
18174;SDS011;9212;50.894;16.714;2023-02-01T11:13:11;3.73;;;2.27;;
18174;SDS011;9212;50.894;16.714;2023-02-01T11:15:45;2.27;;;2.07;;
18174;SDS011;9212;50.894;16.714;2023-02-01T11:18:15;1.60;;;1.50;;
18174;SDS011;9212;50.894;16.714;2023-02-01T11:20:46;7.97;;;3.23;;
18174;SDS011;9212;50.894;16.714;2023-02-01T11:23:18;3.60;;;2.40;;
18174;SDS011;9212;50.894;16.714;2023-02-01T11:25:50;2.83;;;2.27;;
18174;SDS011;9212;50.894;16.714;2023-02-01T11:28:20;8.03;;;2.93;;
18174;SDS011;9212;50.894;16.714;2023-02-01T11:30:49;2.63;;;2.10;;
18174;SDS011;9212;50.894;16.714;2023-02-01T11:33:20;6.60;;;3.00;;
18174;SDS011;9212;50.894;16.714;2023-02-01T11:35:55;3.27;;;2.47;;
18174;SDS011;9212;50.894;16.714;2023-02-01T11:38:26;5.07;;;2.70;;
18174;SDS011;9212;50.894;16.714;2023-02-01T11:40:55;4.67;;;2.93;;
18174;SDS011;9212;50.894;16.714;2023-02-01T11:43:37;5.13;;;2.77;;
18174;SDS011;9212;50.894;16.714;2023-02-01T11:46:18;5.10;;;2.27;;
18174;SDS011;9212;50.894;16.714;2023-02-01T11:48:50;2.40;;;2.10;;
18174;SDS011;9212;50.894;16.714;2023-02-01T11:51:25;8.33;;;2.30;;
18174;SDS011;9212;50.894;16.714;2023-02-01T11:54:17;5.37;;;2.93;;
18174;SDS011;9212;50.894;16.714;2023-02-01T11:56:59;4.10;;;2.60;;
18174;SDS011;9212;50.894;16.714;2023-02-01T11:59:43;11.70;;;4.77;;
18174;SDS011;9212;50.894;16.714;2023-02-01T12:02:30;10.63;;;4.90;;
18174;SDS011;9212;50.894;16.714;2023-02-01T12:05:14;4.37;;;2.30;;
18174;SDS011;9212;50.894;16.714;2023-02-01T12:07:57;8.40;;;3.40;;
18174;SDS011;9212;50.894;16.714;2023-02-01T12:10:48;9.20;;;3.50;;
18174;SDS011;9212;50.894;16.714;2023-02-01T12:13:26;6.27;;;3.10;;
18174;SDS011;9212;50.894;16.714;2023-02-01T12:16:02;12.80;;;4.10;;
18174;SDS011;9212;50.894;16.714;2023-02-01T12:18:51;6.47;;;2.90;;
18174;SDS011;9212;50.894;16.714;2023-02-01T12:21:39;3.83;;;2.57;;
18174;SDS011;9212;50.894;16.714;2023-02-01T12:24:37;5.90;;;3.20;;
18174;SDS011;9212;50.894;16.714;2023-02-01T12:27:21;3.27;;;2.70;;
18174;SDS011;9212;50.894;16.714;2023-02-01T12:30:23;4.73;;;2.37;;
18174;SDS011;9212;50.894;16.714;2023-02-01T12:33:03;4.57;;;3.70;;
18174;SDS011;9212;50.894;16.714;2023-02-01T12:35:40;2.37;;;1.77;;
18174;SDS011;9212;50.894;16.714;2023-02-01T12:38:27;1.90;;;1.77;;
18174;SDS011;9212;50.894;16.714;2023-02-01T12:41:05;5.53;;;2.37;;
18174;SDS011;9212;50.894;16.714;2023-02-01T12:43:42;3.00;;;2.27;;
18174;SDS011;9212;50.894;16.714;2023-02-01T12:46:15;2.00;;;1.80;;
18174;SDS011;9212;50.894;16.714;2023-02-01T12:48:48;1.97;;;1.67;;
18174;SDS011;9212;50.894;16.714;2023-02-01T12:51:21;1.80;;;1.70;;
18174;SDS011;9212;50.894;16.714;2023-02-01T12:53:54;2.03;;;1.57;;
18174;SDS011;9212;50.894;16.714;2023-02-01T12:56:28;2.30;;;2.07;;
18174;SDS011;9212;50.894;16.714;2023-02-01T12:59:01;4.33;;;2.53;;
18174;SDS011;9212;50.894;16.714;2023-02-01T13:01:32;7.10;;;1.57;;
18174;SDS011;9212;50.894;16.714;2023-02-01T13:04:03;1.50;;;1.50;;
18174;SDS011;9212;50.894;16.714;2023-02-01T13:06:37;4.17;;;1.80;;
18174;SDS011;9212;50.894;16.714;2023-02-01T13:09:09;2.30;;;2.20;;
18174;SDS011;9212;50.894;16.714;2023-02-01T13:11:46;2.40;;;1.73;;
18174;SDS011;9212;50.894;16.714;2023-02-01T13:14:19;1.73;;;1.63;;
18174;SDS011;9212;50.894;16.714;2023-02-01T13:16:57;2.00;;;1.43;;
18174;SDS011;9212;50.894;16.714;2023-02-01T13:19:27;3.87;;;1.80;;
18174;SDS011;9212;50.894;16.714;2023-02-01T13:22:00;1.50;;;1.50;;
18174;SDS011;9212;50.894;16.714;2023-02-01T13:24:33;1.67;;;1.50;;
18174;SDS011;9212;50.894;16.714;2023-02-01T13:27:10;2.77;;;1.70;;
18174;SDS011;9212;50.894;16.714;2023-02-01T13:29:40;3.10;;;1.60;;
18174;SDS011;9212;50.894;16.714;2023-02-01T13:35:23;2.53;;;1.60;;
18174;SDS011;9212;50.894;16.714;2023-02-01T13:41:06;5.80;;;2.13;;
18174;SDS011;9212;50.894;16.714;2023-02-01T13:43:48;8.80;;;2.23;;
18174;SDS011;9212;50.894;16.714;2023-02-01T13:46:19;2.53;;;1.80;;
18174;SDS011;9212;50.894;16.714;2023-02-01T13:48:48;6.07;;;2.87;;
18174;SDS011;9212;50.894;16.714;2023-02-01T13:51:17;5.30;;;3.07;;
18174;SDS011;9212;50.894;16.714;2023-02-01T13:54:00;2.73;;;2.53;;
18174;SDS011;9212;50.894;16.714;2023-02-01T13:56:27;10.97;;;2.23;;
18174;SDS011;9212;50.894;16.714;2023-02-01T13:58:56;5.63;;;2.80;;
18174;SDS011;9212;50.894;16.714;2023-02-01T14:07:19;2.87;;;2.10;;
18174;SDS011;9212;50.894;16.714;2023-02-01T14:09:47;7.60;;;2.90;;
18174;SDS011;9212;50.894;16.714;2023-02-01T14:15:25;3.67;;;1.80;;
18174;SDS011;9212;50.894;16.714;2023-02-01T14:17:54;6.93;;;2.90;;
18174;SDS011;9212;50.894;16.714;2023-02-01T14:23:17;6.20;;;3.43;;
18174;SDS011;9212;50.894;16.714;2023-02-01T14:28:44;8.07;;;3.97;;
18174;SDS011;9212;50.894;16.714;2023-02-01T14:34:16;18.17;;;5.83;;
18174;SDS011;9212;50.894;16.714;2023-02-01T14:36:51;14.87;;;4.53;;
18174;SDS011;9212;50.894;16.714;2023-02-01T14:39:26;10.43;;;4.67;;
18174;SDS011;9212;50.894;16.714;2023-02-01T14:42:01;11.47;;;4.93;;
18174;SDS011;9212;50.894;16.714;2023-02-01T14:44:34;9.90;;;3.53;;
18174;SDS011;9212;50.894;16.714;2023-02-01T14:52:50;9.47;;;3.50;;
18174;SDS011;9212;50.894;16.714;2023-02-01T14:55:29;9.20;;;4.10;;
18174;SDS011;9212;50.894;16.714;2023-02-01T14:58:01;8.30;;;3.33;;
18174;SDS011;9212;50.894;16.714;2023-02-01T15:00:32;7.37;;;3.43;;
18174;SDS011;9212;50.894;16.714;2023-02-01T15:03:21;5.40;;;3.07;;
18174;SDS011;9212;50.894;16.714;2023-02-01T15:06:13;7.10;;;2.60;;
18174;SDS011;9212;50.894;16.714;2023-02-01T15:08:48;12.03;;;4.17;;
18174;SDS011;9212;50.894;16.714;2023-02-01T15:11:16;5.57;;;2.90;;
18174;SDS011;9212;50.894;16.714;2023-02-01T15:13:47;7.37;;;2.80;;
18174;SDS011;9212;50.894;16.714;2023-02-01T15:16:15;15.73;;;4.97;;
18174;SDS011;9212;50.894;16.714;2023-02-01T15:18:44;9.67;;;3.60;;
18174;SDS011;9212;50.894;16.714;2023-02-01T15:21:16;8.57;;;2.97;;
18174;SDS011;9212;50.894;16.714;2023-02-01T15:23:45;8.37;;;3.53;;
18174;SDS011;9212;50.894;16.714;2023-02-01T15:26:26;8.50;;;2.80;;
18174;SDS011;9212;50.894;16.714;2023-02-01T15:28:55;7.83;;;4.03;;
18174;SDS011;9212;50.894;16.714;2023-02-01T15:31:33;8.50;;;2.87;;
18174;SDS011;9212;50.894;16.714;2023-02-01T15:34:02;4.47;;;2.97;;
18174;SDS011;9212;50.894;16.714;2023-02-01T15:36:30;6.67;;;3.70;;
18174;SDS011;9212;50.894;16.714;2023-02-01T15:39:15;5.37;;;3.50;;
18174;SDS011;9212;50.894;16.714;2023-02-01T15:41:49;8.20;;;4.23;;
18174;SDS011;9212;50.894;16.714;2023-02-01T15:44:19;8.47;;;3.53;;
18174;SDS011;9212;50.894;16.714;2023-02-01T15:46:48;11.67;;;4.93;;
18174;SDS011;9212;50.894;16.714;2023-02-01T15:49:23;11.87;;;4.97;;